Raciborz, Poland
Current Conditions -  °F | °C
As of 6:30 PM on Thursday 30 Oct 2014 (Local Time) from LKMT Reporting Station
Clear Clear  
Wind Chill: 41°   Ceiling: Unl
Heat Index: 41°   Visibility: 4mi
Dew Point: 37°   Wind: 3mph
Humidity: 87%   Direction: 260°W
Pressure: 30.3"   Gusts: NA
Location:  50.09°N, 18.22°E
Report Text: LKMT 301630Z 26003KT 7000 NSC 05/03 Q1026 TEMPO 5000 BR
Loading
Personal Weather Stations






























Interactive Weather Map
Tropical Storm Tracking
New forecast layout! Learn more

10-Day Weather Forecast

Advertisements
Track Severe Weather on mobile